Time;durP1;ratioP1;P1;durP2;ratioP2;P2;SDS_P1;SDS_P2;PMS_P1;PMS_P2;Temp;Humidity;BMP_temperature;BMP_pressure;BME280_temperature;BME280_humidity;BME280_pressure;Samples;Min_cycle;Max_cycle;Signal;HPM_P1;HPM_P2
2022/01/26 00:06:16;;;;;;;0.90;0.90;;;;;;;4.32;70.67;102713.69;5196399;28;20044;-85
2022/01/26 00:08:48;;;;;;;2.90;2.72;;;;;;;4.40;71.16;102707.00;5192835;28;20030;-85
2022/01/26 00:11:18;;;;;;;3.40;3.20;;;;;;;4.39;70.97;102704.31;5189066;28;20418;-84
2022/01/26 00:13:50;;;;;;;6.63;2.75;;;;;;;4.45;71.06;102703.63;5197724;28;20211;-83
2022/01/26 00:18:58;;;;;;;3.45;3.25;;;;;;;4.37;71.22;102706.88;5205432;28;20048;-85
2022/01/26 00:21:39;;;;;;;2.42;2.00;;;;;;;4.35;70.68;102708.56;5197332;28;20051;-85
2022/01/26 00:24:55;;;;;;;3.28;3.08;;;;;;;4.41;70.55;102716.56;5223815;28;20102;-84
2022/01/26 00:27:20;;;;;;;2.97;2.75;;;;;;;4.38;71.58;102713.84;5217548;28;20125;-84
2022/01/26 00:31:59;;;;;;;3.80;3.50;;;;;;;4.37;70.68;102712.09;5210811;28;20043;-84
2022/01/26 00:38:38;;;;;;;2.53;2.43;;;;;;;4.26;70.38;102710.88;5199070;28;20486;-85
2022/01/26 00:41:14;;;;;;;3.10;2.67;;;;;;;4.28;70.48;102721.31;5209694;28;20090;-85
2022/01/26 00:43:52;;;;;;;2.42;2.28;;;;;;;4.04;71.19;102715.41;5180225;28;20037;-85
2022/01/26 00:46:23;;;;;;;4.47;4.13;;;;;;;4.07;69.76;102707.72;5185657;28;20028;-85
2022/01/26 00:48:54;;;;;;;3.15;2.70;;;;;;;4.28;69.90;102704.00;5180021;28;20037;-85
2022/01/26 00:51:24;;;;;;;2.67;2.47;;;;;;;4.14;70.69;102702.69;5185286;28;20295;-84
2022/01/26 00:54:05;;;;;;;3.25;3.05;;;;;;;4.22;70.51;102701.22;5199700;28;20526;-85
2022/01/26 00:56:36;;;;;;;5.22;3.97;;;;;;;4.24;70.48;102686.56;5184612;28;20043;-85
2022/01/26 00:59:06;;;;;;;4.15;3.75;;;;;;;4.21;70.75;102689.06;5208693;28;20029;-85
2022/01/26 01:01:37;;;;;;;3.00;2.78;;;;;;;4.21;70.25;102692.56;5200185;28;20304;-83
2022/01/26 01:04:08;;;;;;;2.78;2.58;;;;;;;4.25;71.33;102698.72;5198104;28;20091;-84
2022/01/26 01:06:46;;;;;;;5.13;4.72;;;;;;;4.21;71.25;102709.84;5202859;28;20032;-84
2022/01/26 01:09:19;;;;;;;18.20;5.38;;;;;;;4.21;70.99;102708.16;5228528;28;20037;-84
2022/01/26 01:11:55;;;;;;;3.10;2.90;;;;;;;4.19;71.70;102699.41;5206686;28;20071;-85
2022/01/26 01:14:26;;;;;;;5.85;5.25;;;;;;;4.22;71.42;102701.22;5196111;28;20646;-85
2022/01/26 01:17:01;;;;;;;3.45;3.25;;;;;;;4.28;70.47;102706.59;5217890;28;20025;-83
2022/01/26 01:19:55;;;;;;;10.52;6.10;;;;;;;4.29;70.91;102703.16;5223258;28;20035;-83
2022/01/26 01:22:48;;;;;;;5.47;5.00;;;;;;;4.29;70.91;102700.56;5212603;28;20050;-84
2022/01/26 01:28:17;;;;;;;6.95;6.43;;;;;;;4.25;70.94;102706.53;5220057;28;20040;-84
2022/01/26 01:30:58;;;;;;;5.45;3.95;;;;;;;4.26;71.43;102713.47;5183569;28;20029;-83
2022/01/26 01:33:32;;;;;;;5.50;5.10;;;;;;;4.07;70.90;102712.00;5208315;28;20061;-84
2022/01/26 01:36:05;;;;;;;4.55;4.15;;;;;;;4.23;71.30;102714.25;5210202;28;20032;-83
2022/01/26 01:38:39;;;;;;;5.28;4.65;;;;;;;4.15;70.19;102712.25;5209889;28;20035;-84
2022/01/26 01:41:10;;;;;;;5.50;4.28;;;;;;;3.99;71.05;102713.47;5194724;28;20044;-84
2022/01/26 01:43:41;;;;;;;4.93;3.38;;;;;;;4.15;70.23;102717.47;5172003;28;20050;-84
2022/01/26 01:46:11;;;;;;;8.25;6.80;;;;;;;4.04;70.50;102709.34;5192320;28;20026;-84
2022/01/26 01:48:42;;;;;;;6.18;5.07;;;;;;;4.02;70.83;102709.25;5204686;28;20059;-84
2022/01/26 01:51:15;;;;;;;5.80;5.10;;;;;;;4.08;71.19;102701.69;5204214;28;20033;-83
2022/01/26 01:53:46;;;;;;;4.13;3.85;;;;;;;4.11;71.12;102695.69;5213524;28;20153;-84
2022/01/26 01:56:18;;;;;;;3.97;3.67;;;;;;;4.08;71.02;102699.09;5172196;28;20080;-84
2022/01/26 01:58:48;;;;;;;12.50;6.05;;;;;;;4.00;70.80;102695.38;5205882;28;20121;-83
2022/01/26 02:01:20;;;;;;;2.58;2.47;;;;;;;4.04;70.99;102702.41;5183133;28;20867;-83
2022/01/26 02:03:54;;;;;;;4.82;4.22;;;;;;;4.12;70.72;102689.66;5212675;28;20049;-85
2022/01/26 02:06:24;;;;;;;4.82;4.43;;;;;;;3.96;70.74;102693.47;5209963;28;20370;-85
2022/01/26 02:08:55;;;;;;;5.13;4.53;;;;;;;4.19;69.63;102706.31;5192798;28;20033;-83
2022/01/26 02:11:25;;;;;;;6.57;4.10;;;;;;;4.04;70.50;102701.53;5224612;28;20420;-84
2022/01/26 02:19:45;;;;;;;6.80;6.13;;;;;;;3.98;71.20;102707.41;5199844;28;20242;-85
2022/01/26 03:02:11;;;;;;;5.45;4.93;;;;;;;3.91;71.37;102658.69;5211188;28;20046;-84
2022/01/26 03:04:46;;;;;;;3.45;2.97;;;;;;;3.91;70.66;102654.38;5179837;28;20036;-85
2022/01/26 03:07:34;;;;;;;5.47;5.00;;;;;;;3.97;71.00;102658.88;5171755;28;20483;-85
2022/01/26 03:10:55;;;;;;;3.97;3.63;;;;;;;3.87;70.68;102651.63;5173172;28;20302;-85
2022/01/26 03:13:03;;;;;;;4.28;3.38;;;;;;;3.92;70.60;102650.09;5176637;28;20120;-85
2022/01/26 03:15:40;;;;;;;6.80;6.30;;;;;;;4.01;70.66;102652.06;5189599;28;20030;-85
2022/01/26 03:20:43;;;;;;;3.30;3.10;;;;;;;3.87;70.96;102646.44;5213105;28;20025;-84
2022/01/26 03:34:16;;;;;;;5.70;5.18;;;;;;;3.74;70.68;102617.50;5205321;28;20076;-84
2022/01/26 03:39:22;;;;;;;;;;;;;;;3.61;70.96;102610.13;5207949;28;20516;-85
2022/01/26 03:44:23;;;;;;;5.65;5.18;;;;;;;3.67;70.75;102607.75;5206242;28;20156;-84
2022/01/26 03:46:54;;;;;;;10.55;7.45;;;;;;;3.54;71.06;102600.38;5171828;28;20017;-85
2022/01/26 03:49:24;;;;;;;3.95;3.58;;;;;;;3.73;70.61;102607.94;5184800;28;20033;-85
2022/01/26 03:51:55;;;;;;;3.17;2.97;;;;;;;3.75;70.93;102606.28;5196635;28;20063;-86
2022/01/26 03:54:25;;;;;;;4.35;4.05;;;;;;;3.55;71.10;102613.44;5171554;28;20029;-85
2022/01/26 03:56:56;;;;;;;3.50;2.90;;;;;;;3.65;70.68;102608.50;5171615;28;20067;-85
2022/01/26 03:59:26;;;;;;;4.13;3.83;;;;;;;3.52;70.77;102602.03;5226390;28;20024;-85
2022/01/26 04:01:59;;;;;;;8.10;6.43;;;;;;;3.44;71.46;102614.78;5219504;28;20024;-85
2022/01/26 04:04:35;;;;;;;4.13;3.90;;;;;;;3.44;71.34;102615.66;5184487;28;20401;-85
2022/01/26 04:07:06;;;;;;;7.03;6.30;;;;;;;3.43;71.01;102608.69;5188838;28;20041;-86
2022/01/26 04:09:36;;;;;;;7.93;5.13;;;;;;;3.37;71.54;102608.50;5192684;28;20394;-84
2022/01/26 04:12:07;;;;;;;10.63;5.40;;;;;;;3.58;70.61;102618.72;5216238;28;20033;-85
2022/01/26 04:14:39;;;;;;;13.18;5.63;;;;;;;3.36;71.20;102621.44;5185638;28;20025;-86
2022/01/26 04:17:09;;;;;;;4.05;3.75;;;;;;;3.55;70.75;102617.72;5184352;28;20029;-85
2022/01/26 04:19:41;;;;;;;4.55;3.90;;;;;;;3.53;70.70;102627.16;5195280;28;20025;-86
2022/01/26 04:22:19;;;;;;;7.93;5.05;;;;;;;3.59;70.83;102625.66;5214097;28;20037;-86
2022/01/26 04:24:53;;;;;;;6.00;5.28;;;;;;;3.66;70.42;102631.94;5178491;28;20026;-86
2022/01/26 04:27:38;;;;;;;4.20;3.90;;;;;;;3.70;70.19;102628.59;5173956;28;20061;-85
2022/01/26 04:30:09;;;;;;;5.75;5.00;;;;;;;3.66;70.84;102629.34;5207649;28;20344;-84
2022/01/26 04:32:39;;;;;;;3.47;3.28;;;;;;;3.66;69.87;102626.75;5197174;28;20037;-84
2022/01/26 04:35:10;;;;;;;7.28;6.47;;;;;;;3.68;70.89;102621.59;5222103;28;20048;-85
2022/01/26 04:40:14;;;;;;;6.60;5.20;;;;;;;3.60;70.79;102627.44;5187482;28;20458;-84
2022/01/26 04:42:54;;;;;;;7.03;6.40;;;;;;;3.28;70.90;102624.66;5187695;28;20108;-85
2022/01/26 04:45:24;;;;;;;5.30;4.25;;;;;;;3.21;71.74;102621.78;5181989;28;20032;-84
2022/01/26 04:47:54;;;;;;;7.05;4.78;;;;;;;3.30;72.11;102632.50;5200721;28;20029;-85
2022/01/26 04:50:25;;;;;;;6.50;5.05;;;;;;;3.21;71.52;102637.34;5169615;28;20033;-85
2022/01/26 04:52:56;;;;;;;7.15;3.92;;;;;;;3.14;72.59;102650.13;5195768;28;20396;-86
2022/01/26 04:55:27;;;;;;;7.15;3.42;;;;;;;3.33;71.48;102649.88;5164537;28;20056;-85
2022/01/26 04:57:57;;;;;;;3.30;3.10;;;;;;;3.36;71.71;102647.38;5197683;28;20127;-85
2022/01/26 05:00:28;;;;;;;2.95;2.80;;;;;;;3.15;71.68;102646.72;5194901;28;20159;-84
2022/01/26 05:02:58;;;;;;;2.72;2.58;;;;;;;3.27;71.93;102653.13;5186614;28;20038;-85
2022/01/26 05:05:28;;;;;;;2.67;2.47;;;;;;;3.35;71.26;102666.38;5170535;28;20060;-85
2022/01/26 05:07:59;;;;;;;6.22;3.92;;;;;;;3.47;71.30;102670.28;5193840;28;20703;-85
2022/01/26 05:10:29;;;;;;;3.30;3.08;;;;;;;3.48;70.95;102660.75;5221561;28;20025;-85
2022/01/26 05:13:00;;;;;;;4.60;3.50;;;;;;;3.39;71.53;102658.75;5193812;28;20033;-84
2022/01/26 05:15:31;;;;;;;4.63;4.18;;;;;;;3.43;71.04;102655.41;5169533;28;20094;-83
2022/01/26 05:18:01;;;;;;;7.82;6.80;;;;;;;3.42;70.95;102653.69;5173083;28;20529;-85
2022/01/26 05:20:33;;;;;;;8.25;7.10;;;;;;;3.42;70.93;102664.06;5198361;28;20029;-85
2022/01/26 05:23:04;;;;;;;3.75;3.45;;;;;;;3.38;71.12;102667.38;5198405;28;20041;-84
2022/01/26 05:25:34;;;;;;;7.30;4.03;;;;;;;3.53;71.19;102672.19;5181061;28;20550;-85
2022/01/26 05:28:05;;;;;;;8.32;4.18;;;;;;;3.35;71.22;102681.94;5172371;28;20064;-85
2022/01/26 05:30:35;;;;;;;5.65;2.90;;;;;;;3.24;71.45;102694.56;5180358;28;20032;-83
2022/01/26 05:33:06;;;;;;;6.22;4.15;;;;;;;3.39;71.27;102689.88;5176424;28;20037;-84
2022/01/26 05:35:36;;;;;;;4.43;4.13;;;;;;;3.29;70.98;102690.41;5207613;28;20068;-85
2022/01/26 05:38:07;;;;;;;3.78;3.47;;;;;;;3.35;71.23;102679.34;5204841;28;20039;-84
2022/01/26 05:40:37;;;;;;;6.18;5.68;;;;;;;3.38;71.29;102680.34;5194659;28;20038;-83
2022/01/26 05:43:08;;;;;;;11.52;4.30;;;;;;;3.53;71.26;102685.19;5209195;28;20029;-84
2022/01/26 05:45:40;;;;;;;7.57;6.93;;;;;;;3.34;71.08;102685.38;5182816;28;20029;-83
2022/01/26 05:48:12;;;;;;;10.15;5.65;;;;;;;3.22;71.44;102691.00;5192432;28;20108;-82
2022/01/26 05:50:50;;;;;;;3.40;3.20;;;;;;;3.30;71.17;102677.50;5217047;28;20093;-81
2022/01/26 05:53:21;;;;;;;7.88;6.10;;;;;;;3.14;71.09;102649.25;5188088;28;20120;-80
2022/01/26 05:55:53;;;;;;;5.28;4.93;;;;;;;3.28;71.24;102660.09;5173667;28;20284;-81
2022/01/26 05:58:24;;;;;;;6.38;4.57;;;;;;;3.35;71.59;102667.25;5193811;28;20036;-82
2022/01/26 06:00:57;;;;;;;5.32;4.97;;;;;;;3.37;71.46;102655.22;5188333;28;20384;-83
2022/01/26 06:03:29;;;;;;;6.72;4.57;;;;;;;3.42;71.49;102666.66;5201006;28;20041;-82
2022/01/26 06:06:00;;;;;;;4.82;4.53;;;;;;;3.22;72.12;102680.63;5195000;28;20085;-82
2022/01/26 06:08:30;;;;;;;4.97;4.45;;;;;;;3.41;71.65;102664.88;5200877;28;20067;-82
2022/01/26 06:11:03;;;;;;;7.10;5.80;;;;;;;3.35;71.53;102666.38;5184564;28;20021;-82
2022/01/26 06:13:34;;;;;;;6.57;6.07;;;;;;;3.24;71.74;102658.22;5187238;28;20108;-83
2022/01/26 06:16:05;;;;;;;5.00;4.60;;;;;;;3.32;71.47;102636.03;5185150;28;20052;-82
2022/01/26 06:18:35;;;;;;;9.55;5.28;;;;;;;3.31;71.81;102639.44;5198478;28;20049;-82
2022/01/26 06:21:10;;;;;;;3.95;3.60;;;;;;;3.37;71.83;102633.59;5202767;28;20025;-82
2022/01/26 06:23:40;;;;;;;3.50;3.28;;;;;;;3.18;72.51;102608.75;5199346;28;20082;-82
2022/01/26 06:26:11;;;;;;;5.57;4.47;;;;;;;3.07;72.37;102604.06;5192811;28;20142;-83
2022/01/26 06:28:42;;;;;;;4.43;4.03;;;;;;;3.26;72.31;102630.63;5204176;28;20033;-82
2022/01/26 06:31:15;;;;;;;4.68;4.38;;;;;;;3.37;72.30;102650.03;5197234;28;20111;-82
2022/01/26 06:33:49;;;;;;;4.55;4.25;;;;;;;3.29;71.66;102641.09;5176295;28;20087;-82
2022/01/26 06:36:22;;;;;;;4.05;3.42;;;;;;;3.24;72.41;102647.84;5200130;28;20029;-82
2022/01/26 06:38:53;;;;;;;8.85;3.92;;;;;;;3.40;71.58;102644.94;5192639;28;20254;-82
2022/01/26 06:41:26;;;;;;;6.25;4.90;;;;;;;3.40;71.65;102634.56;5193969;28;20044;-81
2022/01/26 06:44:07;;;;;;;4.67;4.30;;;;;;;3.41;71.70;102646.72;5172900;28;20720;-81
2022/01/26 06:49:33;;;;;;;3.05;2.85;;;;;;;3.53;71.91;102658.31;5201167;28;20505;-82
2022/01/26 06:52:04;;;;;;;3.95;3.65;;;;;;;3.44;72.13;102657.19;5201296;28;20040;-82
2022/01/26 06:54:35;;;;;;;5.78;5.38;;;;;;;3.36;71.70;102653.44;5181666;28;20025;-83
2022/01/26 06:57:05;;;;;;;4.40;4.10;;;;;;;3.43;72.02;102662.31;5191960;28;20034;-82
2022/01/26 06:59:36;;;;;;;4.70;4.32;;;;;;;3.50;71.85;102655.66;5181363;28;20061;-82
2022/01/26 07:02:07;;;;;;;4.22;3.97;;;;;;;3.41;72.01;102656.19;5182333;28;20759;-82
2022/01/26 07:04:37;;;;;;;6.35;5.80;;;;;;;3.42;72.33;102645.88;5180196;28;20029;-83
2022/01/26 07:07:08;;;;;;;2.80;2.42;;;;;;;3.39;71.91;102642.31;5208020;28;20036;-83
2022/01/26 07:09:38;;;;;;;6.70;5.15;;;;;;;3.53;72.19;102635.84;5194790;28;20029;-83
2022/01/26 07:12:09;;;;;;;4.95;4.65;;;;;;;3.36;71.89;102627.50;5192403;28;20064;-83
2022/01/26 07:23:07;;;;;;;4.18;3.88;;;;;;;3.53;71.83;102640.16;5208485;28;20165;-83
2022/01/26 07:25:38;;;;;;;6.85;4.40;;;;;;;3.54;72.43;102649.72;5193915;28;20389;-83
2022/01/26 07:28:09;;;;;;;5.38;4.50;;;;;;;3.53;71.91;102647.94;5200601;28;20045;-83
2022/01/26 07:30:40;;;;;;;4.45;4.15;;;;;;;3.45;71.85;102643.38;5179525;28;20100;-83
2022/01/26 07:33:10;;;;;;;5.00;3.83;;;;;;;3.54;72.00;102636.72;5212786;28;20050;-83
2022/01/26 07:35:41;;;;;;;6.32;5.78;;;;;;;3.52;72.36;102653.97;5188871;28;20037;-83
2022/01/26 07:38:11;;;;;;;4.50;4.13;;;;;;;3.51;72.63;102647.03;5188867;28;20041;-83
2022/01/26 07:40:42;;;;;;;5.38;4.82;;;;;;;3.46;72.46;102639.94;5203594;28;20118;-83
2022/01/26 07:43:12;;;;;;;4.90;4.53;;;;;;;3.40;73.32;102642.34;5189058;28;20025;-83
2022/01/26 07:45:43;;;;;;;4.43;4.13;;;;;;;3.50;72.77;102645.25;5192772;28;20033;-83
2022/01/26 07:48:13;;;;;;;5.07;4.68;;;;;;;3.30;73.00;102642.88;5192428;28;20038;-83
2022/01/26 07:50:45;;;;;;;9.70;8.82;;;;;;;3.36;73.10;102634.41;5196549;28;20029;-83
2022/01/26 07:53:17;;;;;;;10.25;6.22;;;;;;;3.48;72.52;102632.22;5171289;28;20446;-83
2022/01/26 07:55:49;;;;;;;7.53;4.28;;;;;;;3.41;71.88;102625.06;5186217;28;20041;-83
2022/01/26 07:58:20;;;;;;;4.68;4.28;;;;;;;3.24;72.92;102638.34;5175184;28;20059;-84
2022/01/26 08:00:51;;;;;;;7.82;5.40;;;;;;;3.23;72.94;102653.88;5185119;28;20067;-82
2022/01/26 08:03:22;;;;;;;7.32;5.65;;;;;;;3.45;72.84;102656.34;5177659;28;20506;-82
2022/01/26 08:05:52;;;;;;;2.90;2.72;;;;;;;3.40;72.84;102663.13;5178630;28;20029;-82
2022/01/26 08:08:23;;;;;;;3.85;3.55;;;;;;;3.36;73.36;102663.81;5173763;28;20037;-82
2022/01/26 08:10:53;;;;;;;10.00;6.78;;;;;;;3.34;73.29;102660.31;5170147;28;20060;-82
2022/01/26 08:13:24;;;;;;;7.70;6.20;;;;;;;3.27;73.41;102640.16;5191018;28;20086;-83
2022/01/26 08:15:57;;;;;;;6.68;5.97;;;;;;;3.20;73.42;102626.13;5186525;28;20095;-83
2022/01/26 08:18:30;;;;;;;6.77;4.63;;;;;;;3.28;73.90;102636.72;5177040;28;20037;-83
2022/01/26 08:21:05;;;;;;;5.55;4.68;;;;;;;3.41;73.30;102651.91;5173165;28;20051;-83
2022/01/26 08:23:36;;;;;;;2.97;2.78;;;;;;;3.42;73.35;102647.59;5206518;28;20399;-83
2022/01/26 08:26:07;;;;;;;3.05;2.85;;;;;;;3.27;73.31;102633.28;5191053;28;20171;-83
2022/01/26 08:28:41;;;;;;;4.85;4.45;;;;;;;3.35;73.23;102641.28;5206743;28;20116;-83
2022/01/26 08:31:13;;;;;;;4.28;4.00;;;;;;;3.36;73.42;102652.56;5205060;28;20079;-81
2022/01/26 08:33:43;;;;;;;5.07;4.72;;;;;;;3.24;73.99;102650.44;5205373;28;20245;-82
2022/01/26 08:36:15;;;;;;;4.25;3.83;;;;;;;3.39;73.42;102665.66;5212059;28;20032;-82
2022/01/26 08:38:46;;;;;;;4.95;4.65;;;;;;;3.38;74.09;102676.88;5209987;28;20112;-82
2022/01/26 08:41:16;;;;;;;3.72;3.53;;;;;;;3.25;74.15;102685.94;5228990;28;20112;-82
2022/01/26 08:43:47;;;;;;;8.13;6.70;;;;;;;3.36;73.77;102683.72;5175190;28;20042;-83
2022/01/26 08:46:18;;;;;;;8.00;7.28;;;;;;;3.21;74.62;102690.16;5203014;28;20112;-82
2022/01/26 08:48:49;;;;;;;5.30;5.00;;;;;;;3.27;74.32;102687.75;5204226;28;20052;-82
2022/01/26 08:51:19;;;;;;;2.38;2.28;;;;;;;3.19;75.25;102699.56;5200385;28;20033;-82
2022/01/26 08:53:50;;;;;;;5.60;4.65;;;;;;;3.27;74.10;102711.09;5229252;28;20053;-83
2022/01/26 08:56:20;;;;;;;2.97;2.88;;;;;;;3.14;75.24;102714.09;5196921;28;20107;-81
2022/01/26 08:58:52;;;;;;;6.88;5.43;;;;;;;3.16;74.92;102704.66;5232783;28;20069;-82
2022/01/26 09:01:22;;;;;;;8.45;5.78;;;;;;;3.12;75.19;102706.25;5232213;28;20115;-82
2022/01/26 09:03:54;;;;;;;5.43;4.97;;;;;;;3.19;75.22;102702.16;5216157;28;20409;-82
2022/01/26 09:06:24;;;;;;;12.57;5.95;;;;;;;3.05;75.33;102699.09;5198065;28;20024;-82
2022/01/26 09:09:03;;;;;;;8.25;7.47;;;;;;;3.09;75.70;102706.16;5197931;28;20128;-83
2022/01/26 09:11:36;;;;;;;4.00;3.70;;;;;;;3.15;75.73;102706.38;5215620;28;20056;-83
2022/01/26 09:14:16;;;;;;;3.72;3.40;;;;;;;3.18;74.86;102707.31;5200087;28;20119;-82
2022/01/26 09:16:51;;;;;;;4.55;3.55;;;;;;;3.14;75.59;102707.19;5209470;28;20048;-83
2022/01/26 09:22:08;;;;;;;14.55;6.15;;;;;;;3.05;75.89;102713.78;5239861;28;20024;-83
2022/01/26 09:24:40;;;;;;;7.40;6.80;;;;;;;3.07;75.71;102702.63;5214415;28;20029;-83
2022/01/26 09:27:14;;;;;;;5.60;5.20;;;;;;;3.09;75.72;102706.16;5200012;28;20045;-83
2022/01/26 09:29:46;;;;;;;4.93;4.53;;;;;;;3.10;75.49;102707.91;5212475;28;20025;-83
2022/01/26 09:32:17;;;;;;;5.75;5.28;;;;;;;2.94;76.51;102715.94;5201642;28;20037;-82
2022/01/26 09:34:47;;;;;;;4.90;4.50;;;;;;;2.94;76.54;102716.84;5199684;28;20039;-82
2022/01/26 09:37:18;;;;;;;5.65;4.50;;;;;;;2.95;76.38;102715.13;5215185;28;20036;-82
2022/01/26 09:39:49;;;;;;;17.95;5.43;;;;;;;2.99;76.67;102719.63;5205914;28;20120;-82
2022/01/26 09:42:19;;;;;;;15.40;9.10;;;;;;;3.01;75.80;102720.56;5207403;28;20056;-83
2022/01/26 09:44:50;;;;;;;6.93;4.72;;;;;;;2.92;76.41;102718.50;5199408;28;20029;-84
2022/01/26 09:47:25;;;;;;;12.07;8.95;;;;;;;2.90;76.69;102719.28;5215526;28;20049;-85
2022/01/26 09:49:55;;;;;;;6.32;5.75;;;;;;;3.04;76.39;102718.06;5197327;28;20029;-84
2022/01/26 09:52:59;;;;;;;23.73;5.80;;;;;;;2.97;76.52;102722.16;5207602;28;20629;-82
2022/01/26 09:55:23;;;;;;;5.35;4.95;;;;;;;3.02;75.58;102724.91;5240327;28;20040;-84
2022/01/26 09:57:58;;;;;;;3.50;3.22;;;;;;;3.08;76.27;102738.13;5230016;28;20044;-84
2022/01/26 10:00:29;;;;;;;7.22;6.60;;;;;;;3.20;75.25;102734.16;5199297;28;20521;-84
2022/01/26 10:03:03;;;;;;;3.50;3.28;;;;;;;3.22;75.39;102730.84;5208790;28;20124;-82
2022/01/26 10:05:45;;;;;;;6.20;5.65;;;;;;;3.05;75.68;102732.78;5215156;28;20033;-82
2022/01/26 10:17:22;;;;;;;9.95;8.45;;;;;;;2.92;77.07;102715.03;5243276;28;20084;-83
2022/01/26 10:19:35;;;;;;;3.63;3.38;;;;;;;2.94;77.14;102718.53;5203684;28;20119;-83
2022/01/26 10:22:05;;;;;;;8.82;8.02;;;;;;;2.83;77.66;102708.69;5192498;28;20504;-84
2022/01/26 10:24:36;;;;;;;7.90;6.22;;;;;;;2.95;77.43;102700.47;5200753;28;20095;-84
2022/01/26 10:27:06;;;;;;;9.60;8.60;;;;;;;2.89;77.90;102712.31;5208934;28;20050;-84
2022/01/26 10:29:37;;;;;;;9.40;5.85;;;;;;;2.96;77.69;102703.94;5184906;28;20033;-84
2022/01/26 10:32:11;;;;;;;4.40;4.20;;;;;;;3.06;77.03;102703.44;5209945;28;20060;-84
2022/01/26 10:34:42;;;;;;;3.72;3.38;;;;;;;2.92;77.67;102705.53;5185642;28;20413;-84
2022/01/26 10:37:12;;;;;;;6.13;3.47;;;;;;;2.91;77.37;102698.56;5194333;28;20041;-84
2022/01/26 10:39:48;;;;;;;5.78;3.90;;;;;;;2.97;77.78;102700.50;5175981;28;20029;-84
2022/01/26 10:42:21;;;;;;;4.57;3.55;;;;;;;3.02;77.80;102698.09;5181003;28;20037;-84
2022/01/26 10:45:08;;;;;;;4.35;3.28;;;;;;;3.04;77.80;102697.31;5174446;28;20026;-84
2022/01/26 10:47:44;;;;;;;6.05;5.63;;;;;;;2.93;78.39;102696.94;5210631;28;20504;-84
2022/01/26 10:53:19;;;;;;;6.28;3.95;;;;;;;2.96;78.59;102701.34;5198312;28;20125;-84
2022/01/26 10:55:50;;;;;;;4.25;3.95;;;;;;;2.88;79.35;102692.41;5194156;28;20084;-84
2022/01/26 10:58:21;;;;;;;6.35;5.78;;;;;;;2.97;78.59;102677.19;5163993;28;20036;-84
2022/01/26 11:01:09;;;;;;;4.95;4.55;;;;;;;2.98;78.75;102673.75;5195374;28;20037;-84
2022/01/26 11:03:40;;;;;;;2.60;2.50;;;;;;;2.87;78.61;102680.25;5194009;28;20096;-84
2022/01/26 11:06:18;;;;;;;7.65;5.32;;;;;;;2.90;79.25;102691.63;5177882;28;20061;-83
2022/01/26 11:08:50;;;;;;;8.23;7.13;;;;;;;2.82;79.36;102699.13;5191501;28;20107;-84
2022/01/26 11:11:23;;;;;;;5.78;5.20;;;;;;;2.93;79.00;102702.13;5174981;28;20029;-84
2022/01/26 11:13:54;;;;;;;10.13;4.90;;;;;;;3.01;78.40;102702.41;5193165;28;20052;-83
2022/01/26 11:16:24;;;;;;;8.57;5.20;;;;;;;2.92;79.21;102709.84;5177093;28;20025;-84
2022/01/26 11:18:58;;;;;;;4.07;3.83;;;;;;;3.07;78.49;102694.84;5191792;28;20037;-84
2022/01/26 11:21:28;;;;;;;;;;;;;;;2.99;79.32;102701.47;5191621;28;20392;-84
2022/01/26 11:24:21;;;;;;;4.47;4.15;;;;;;;2.99;78.99;102706.66;5194978;28;20233;-84
2022/01/26 11:27:05;;;;;;;2.53;1.90;;;;;;;3.01;79.17;102702.41;5206135;28;20060;-84
2022/01/26 11:29:41;;;;;;;3.78;3.13;;;;;;;3.01;78.76;102694.63;5198559;28;20032;-84
2022/01/26 11:32:18;;;;;;;7.25;4.35;;;;;;;2.86;79.51;102707.91;5221117;28;20045;-84
2022/01/26 11:34:54;;;;;;;3.92;3.60;;;;;;;3.03;78.78;102711.09;5238059;28;20025;-84
2022/01/26 11:37:38;;;;;;;2.42;2.33;;;;;;;2.98;78.62;102715.25;5230181;28;20444;-84
2022/01/26 11:46:10;;;;;;;1.73;1.65;;;;;;;3.10;78.16;102717.41;5208361;28;20037;-84
2022/01/26 11:48:41;;;;;;;4.75;3.28;;;;;;;3.04;78.72;102712.88;5207565;28;20102;-83
2022/01/26 11:51:11;;;;;;;3.70;3.40;;;;;;;3.04;78.75;102705.09;5214591;28;20017;-84
2022/01/26 11:53:41;;;;;;;2.78;2.67;;;;;;;2.96;78.85;102707.44;5200221;28;20052;-84
2022/01/26 11:56:19;;;;;;;4.43;4.10;;;;;;;3.05;78.56;102709.47;5219725;28;20036;-83
2022/01/26 11:58:53;;;;;;;4.80;3.78;;;;;;;3.03;78.88;102716.28;5192142;28;20037;-83
2022/01/26 12:01:28;;;;;;;3.70;3.35;;;;;;;3.02;79.19;102706.75;5229230;28;20032;-84
2022/01/26 12:04:06;;;;;;;3.05;2.88;;;;;;;3.02;79.24;102708.47;5204380;28;20033;-83
2022/01/26 12:06:47;;;;;;;4.32;3.92;;;;;;;2.99;79.23;102702.31;5193691;28;20397;-83
2022/01/26 12:09:17;;;;;;;3.13;2.70;;;;;;;2.92;79.39;102694.28;5210041;28;20091;-83
2022/01/26 12:11:52;;;;;;;5.97;5.47;;;;;;;2.99;79.17;102688.50;5230747;28;20028;-84
2022/01/26 12:14:23;;;;;;;5.05;4.65;;;;;;;2.99;78.73;102689.38;5175906;28;20033;-83
2022/01/26 12:16:58;;;;;;;3.13;2.92;;;;;;;3.00;79.13;102685.06;5209777;28;20041;-83
2022/01/26 12:19:35;;;;;;;2.83;2.50;;;;;;;3.00;79.04;102692.84;5194118;28;20035;-84
2022/01/26 12:36:57;;;;;;;1.90;1.80;;;;;;;3.15;78.32;102682.13;5209171;28;20090;-83
2022/01/26 12:42:36;;;;;;;3.38;3.03;;;;;;;3.13;78.49;102666.50;5212423;28;20269;-82
2022/01/26 12:45:07;;;;;;;4.72;4.15;;;;;;;3.13;78.69;102665.66;5199740;28;20039;-83
2022/01/26 12:47:37;;;;;;;5.85;4.18;;;;;;;3.01;79.39;102655.72;5216342;28;20041;-84
2022/01/26 12:50:08;;;;;;;2.25;2.10;;;;;;;3.08;78.63;102662.88;5219739;28;20025;-83
2022/01/26 12:52:43;;;;;;;3.25;3.05;;;;;;;3.05;79.26;102661.91;5195817;28;20040;-83
2022/01/26 12:55:30;;;;;;;3.80;2.92;;;;;;;3.08;79.08;102657.69;5195333;28;20034;-83
2022/01/26 12:58:02;;;;;;;2.53;2.42;;;;;;;3.11;78.82;102662.97;5214758;28;20326;-82
2022/01/26 13:00:42;;;;;;;4.13;3.83;;;;;;;2.99;79.40;102658.25;5198209;28;20112;-83
2022/01/26 13:03:15;;;;;;;1.08;1.08;;;;;;;3.23;79.31;102669.44;5194918;28;20037;-83
2022/01/26 13:05:46;;;;;;;4.78;4.10;;;;;;;3.15;78.90;102664.88;5199001;28;20221;-83
2022/01/26 13:08:16;;;;;;;1.92;1.83;;;;;;;3.19;79.01;102664.94;5186225;28;20089;-83
2022/01/26 13:10:47;;;;;;;4.82;4.38;;;;;;;3.17;79.26;102667.50;5178483;28;20038;-84
2022/01/26 13:13:21;;;;;;;1.67;1.60;;;;;;;3.21;78.39;102665.91;5196274;28;20071;-84
2022/01/26 13:16:01;;;;;;;5.60;5.10;;;;;;;3.17;79.12;102670.09;5191171;28;20030;-84
2022/01/26 13:19:19;;;;;;;2.72;2.00;;;;;;;3.07;79.25;102670.59;5197958;28;20040;-84
2022/01/26 13:24:50;;;;;;;2.75;2.58;;;;;;;3.06;79.82;102648.09;5241198;28;20036;-83
2022/01/26 13:27:43;;;;;;;4.53;4.20;;;;;;;3.00;79.97;102648.78;5198786;28;20108;-83
2022/01/26 13:33:12;;;;;;;4.25;2.72;;;;;;;3.07;79.50;102640.38;5198977;28;20272;-83
2022/01/26 14:00:15;;;;;;;13.10;4.53;;;;;;;2.98;79.70;102603.75;5213904;28;20065;-84
2022/01/26 14:02:49;;;;;;;3.60;3.30;;;;;;;2.94;80.38;102596.66;5211795;28;20164;-85
2022/01/26 14:05:20;;;;;;;2.28;2.08;;;;;;;3.06;80.25;102606.63;5203726;28;20071;-84
2022/01/26 14:07:54;;;;;;;4.65;4.28;;;;;;;3.06;80.20;102609.22;5174265;28;20290;-85
2022/01/26 14:10:25;;;;;;;3.67;3.38;;;;;;;3.10;79.88;102603.28;5177631;28;20025;-83
2022/01/26 14:12:56;;;;;;;3.88;2.60;;;;;;;3.10;79.63;102608.47;5172206;28;20043;-84
2022/01/26 14:15:38;;;;;;;3.38;3.17;;;;;;;3.02;80.21;102602.13;5174305;28;20416;-84
2022/01/26 14:18:42;;;;;;;17.70;7.35;;;;;;;3.00;80.38;102591.72;5187431;28;20048;-83
2022/01/26 14:26:31;;;;;;;4.00;3.80;;;;;;;2.96;80.75;102582.94;5205251;28;20025;-85
2022/01/26 14:29:07;;;;;;;6.18;4.05;;;;;;;2.90;81.25;102580.13;5188532;28;20052;-85
2022/01/26 14:32:02;;;;;;;4.28;3.90;;;;;;;2.85;80.84;102573.03;5177359;28;20025;-84
2022/01/26 14:51:29;;;;;;;2.42;2.33;;;;;;;2.87;80.10;102594.69;5218474;28;20086;-84
2022/01/26 15:35:38;;;;;;;2.65;2.45;;;;;;;2.77;79.89;102585.72;5203284;28;20476;-84
2022/01/26 15:52:06;;;;;;;3.05;2.85;;;;;;;2.77;79.35;102591.78;5235718;28;20438;-84
2022/01/26 16:12:39;;;;;;;1.27;1.25;;;;;;;2.79;80.02;102603.09;5172776;28;20069;-85
2022/01/26 16:20:19;;;;;;;4.28;3.92;;;;;;;2.76;79.70;102602.09;5193675;28;20040;-84
2022/01/26 17:11:22;;;;;;;5.07;4.65;;;;;;;2.71;80.12;102580.31;5203173;28;20104;-84
2022/01/26 18:05:29;;;;;;;5.18;2.78;;;;;;;2.49;81.06;102566.59;5189796;28;20096;-84
2022/01/26 18:17:59;;;;;;;3.65;3.42;;;;;;;2.44;81.36;102557.78;5205613;28;20044;-84